Time;durP1;ratioP1;P1;durP2;ratioP2;P2;SDS_P1;SDS_P2;PMS_P1;PMS_P2;Temp;Humidity;BMP_temperature;BMP_pressure;BME280_temperature;BME280_humidity;BME280_pressure;Samples;Min_cycle;Max_cycle;Signal;HPM_P1;HPM_P2
2021/12/12 00:02:23;;;;;;;1.40;1.30;;;3.80;98.00;;;;;;4992457;28;20467;-63
2021/12/12 00:04:55;;;;;;;1.50;1.50;;;3.80;98.00;;;;;;4992465;28;21005;-63
2021/12/12 00:07:30;;;;;;;1.10;1.00;;;3.80;98.00;;;;;;4991970;28;20535;-63
2021/12/12 00:10:04;;;;;;;1.30;1.30;;;3.80;98.00;;;;;;4990860;28;20492;-63
2021/12/12 00:12:35;;;;;;;1.47;1.30;;;3.90;98.00;;;;;;4992125;28;20458;-63
2021/12/12 00:15:09;;;;;;;1.53;1.47;;;3.90;98.00;;;;;;4991913;28;20488;-63
2021/12/12 00:17:39;;;;;;;5.40;2.30;;;4.00;98.00;;;;;;4991203;28;20464;-62
2021/12/12 00:20:19;;;;;;;3.70;1.60;;;3.80;98.00;;;;;;5023422;28;20453;-63
2021/12/12 00:22:47;;;;;;;2.93;2.30;;;3.70;98.00;;;;;;4991883;28;20479;-62
2021/12/12 00:25:21;;;;;;;1.47;1.37;;;3.80;98.00;;;;;;4991760;28;20465;-62
2021/12/12 00:27:50;;;;;;;2.60;1.83;;;3.80;98.00;;;;;;4991807;28;20552;-63
2021/12/12 00:30:22;;;;;;;3.20;3.10;;;3.80;98.00;;;;;;4992030;28;20493;-63
2021/12/12 00:32:57;;;;;;;5.80;2.60;;;3.90;98.00;;;;;;4991829;28;20461;-63
2021/12/12 00:35:30;;;;;;;3.60;2.30;;;3.80;98.00;;;;;;4991850;28;20492;-63
2021/12/12 00:38:05;;;;;;;1.30;1.10;;;3.80;98.00;;;;;;4991825;28;20462;-62
2021/12/12 00:40:43;;;;;;;1.40;1.40;;;3.80;98.00;;;;;;4991849;28;20500;-63
2021/12/12 00:43:16;;;;;;;1.83;1.63;;;3.80;98.00;;;;;;4991624;28;20460;-63
2021/12/12 00:45:48;;;;;;;1.93;1.37;;;3.70;98.00;;;;;;4991827;28;20511;-62
2021/12/12 00:48:18;;;;;;;1.30;1.30;;;3.70;98.00;;;;;;5025842;28;20501;-63
2021/12/12 00:51:00;;;;;;;1.50;1.30;;;3.70;98.00;;;;;;4995328;28;20464;-63
2021/12/12 00:53:31;;;;;;;3.37;2.03;;;3.80;98.00;;;;;;4995274;28;20465;-62
2021/12/12 00:56:18;;;;;;;1.43;1.37;;;3.80;98.00;;;;;;4995289;28;21011;-63
2021/12/12 00:58:54;;;;;;;5.93;1.83;;;3.90;98.00;;;;;;4995354;28;20453;-63
2021/12/12 01:01:28;;;;;;;3.63;1.47;;;3.80;98.00;;;;;;4995262;28;20951;-63
2021/12/12 01:04:02;;;;;;;1.30;1.30;;;3.80;98.00;;;;;;5025722;28;20866;-62
2021/12/12 01:06:31;;;;;;;3.73;1.37;;;3.80;98.00;;;;;;4995235;28;20464;-62
2021/12/12 01:09:06;;;;;;;4.17;1.50;;;3.80;98.00;;;;;;4995364;28;20867;-62
2021/12/12 01:11:42;;;;;;;1.57;1.50;;;3.80;98.00;;;;;;4995232;28;20460;-62
2021/12/12 01:14:15;;;;;;;2.13;1.97;;;3.80;98.00;;;;;;4995298;28;20540;-63
2021/12/12 01:16:50;;;;;;;1.80;1.43;;;3.80;98.00;;;;;;4995201;28;20975;-63
2021/12/12 01:19:27;;;;;;;1.20;1.00;;;3.80;98.00;;;;;;4995238;28;20824;-63
2021/12/12 01:22:04;;;;;;;1.77;1.63;;;3.90;98.00;;;;;;4994852;28;20871;-62
2021/12/12 01:24:39;;;;;;;1.90;1.60;;;4.00;98.00;;;;;;4994964;28;20548;-63
2021/12/12 01:27:13;;;;;;;2.57;2.10;;;4.10;98.00;;;;;;4994794;28;20798;-63
2021/12/12 01:29:46;;;;;;;1.93;1.30;;;4.20;98.00;;;;;;4994718;28;20831;-63
2021/12/12 01:32:24;;;;;;;2.93;1.47;;;4.00;98.00;;;;;;4993801;28;20935;-62
2021/12/12 01:34:56;;;;;;;2.90;1.60;;;4.10;98.00;;;;;;4994782;28;20790;-62
2021/12/12 01:37:41;;;;;;;1.50;1.50;;;4.30;98.00;;;;;;4994495;28;20541;-62
2021/12/12 01:40:16;;;;;;;2.13;1.47;;;4.30;98.00;;;;;;4994476;28;20456;-63
2021/12/12 01:42:54;;;;;;;1.20;1.10;;;4.20;98.00;;;;;;4993214;28;20543;-62
2021/12/12 01:45:27;;;;;;;1.77;1.40;;;4.20;98.00;;;;;;4994320;28;20492;-62
2021/12/12 01:48:04;;;;;;;1.80;1.63;;;4.10;98.00;;;;;;4994256;28;20813;-62
2021/12/12 01:50:46;;;;;;;1.77;1.57;;;4.10;98.00;;;;;;4993894;28;20892;-63
2021/12/12 01:53:21;;;;;;;3.30;1.30;;;4.10;98.00;;;;;;4993852;28;20473;-63
2021/12/12 01:55:58;;;;;;;2.60;2.23;;;4.00;98.00;;;;;;4994131;28;20509;-62
2021/12/12 01:58:31;;;;;;;1.43;1.20;;;3.90;98.00;;;;;;4993092;28;20518;-62
2021/12/12 02:01:03;;;;;;;3.67;1.50;;;3.90;98.00;;;;;;4994002;28;20817;-62
2021/12/12 02:03:41;;;;;;;1.50;1.43;;;3.90;98.00;;;;;;4993897;28;20488;-62
2021/12/12 02:06:13;;;;;;;1.50;1.13;;;3.90;98.00;;;;;;4994111;28;20457;-63
2021/12/12 02:08:46;;;;;;;1.80;1.70;;;3.90;98.00;;;;;;4993850;28;20465;-62
2021/12/12 02:11:25;;;;;;;1.10;0.97;;;3.90;98.00;;;;;;4993847;28;20483;-63
2021/12/12 02:13:57;;;;;;;1.40;1.30;;;3.90;98.00;;;;;;4992689;28;20559;-63
2021/12/12 02:16:32;;;;;;;1.20;1.20;;;3.90;98.00;;;;;;4993851;28;20491;-62
2021/12/12 02:19:01;;;;;;;1.50;1.20;;;3.80;98.00;;;;;;4993777;28;20464;-62
2021/12/12 02:21:44;;;;;;;1.17;1.10;;;3.80;98.00;;;;;;4993675;28;20457;-62
2021/12/12 02:35:05;;;;;;;1.20;1.00;;;3.90;98.00;;;;;;4992766;28;20467;-62
2021/12/12 02:35:45;;;;;;;1.20;1.20;;;3.70;98.00;;;;;;4993407;28;20492;-63
2021/12/12 02:38:23;;;;;;;1.53;1.20;;;3.70;98.00;;;;;;4993638;28;20452;-62
2021/12/12 02:41:00;;;;;;;1.10;1.00;;;3.80;98.00;;;;;;4993484;28;20466;-62
2021/12/12 02:43:35;;;;;;;1.30;1.27;;;3.80;98.00;;;;;;4993699;28;20456;-62
2021/12/12 02:46:05;;;;;;;1.10;0.90;;;3.90;98.00;;;;;;4992112;28;20556;-62
2021/12/12 02:48:42;;;;;;;1.10;1.00;;;4.10;98.00;;;;;;4993227;28;20445;-62
2021/12/12 02:51:15;;;;;;;1.97;1.80;;;4.20;98.00;;;;;;4993195;28;20879;-63
2021/12/12 02:53:48;;;;;;;1.30;1.20;;;4.10;98.00;;;;;;4993008;28;20987;-62
2021/12/12 02:56:25;;;;;;;1.20;1.10;;;4.00;98.00;;;;;;4992977;28;20488;-62
2021/12/12 02:58:55;;;;;;;1.27;1.20;;;4.00;98.00;;;;;;4992868;28;20453;-62
2021/12/12 03:01:28;;;;;;;1.20;1.10;;;3.90;98.00;;;;;;4992764;28;20480;-62
2021/12/12 03:04:01;;;;;;;1.10;1.10;;;3.80;98.00;;;;;;4992792;28;20456;-63
2021/12/12 03:06:36;;;;;;;2.13;1.30;;;3.90;98.00;;;;;;4992601;28;20465;-63
2021/12/12 03:09:12;;;;;;;1.50;1.20;;;3.80;98.00;;;;;;4992737;28;20454;-63
2021/12/12 03:11:43;;;;;;;1.10;1.00;;;3.80;98.00;;;;;;4992446;28;20511;-63
2021/12/12 03:14:21;;;;;;;2.13;1.30;;;3.80;98.00;;;;;;4992713;28;20457;-63
2021/12/12 03:16:51;;;;;;;1.40;1.30;;;3.80;98.00;;;;;;4992813;28;20493;-62
2021/12/12 03:19:21;;;;;;;3.53;1.23;;;3.80;98.00;;;;;;4992623;28;20466;-62
2021/12/12 03:21:50;;;;;;;1.10;1.00;;;3.70;98.00;;;;;;4992627;28;20462;-62
2021/12/12 03:24:24;;;;;;;1.40;1.40;;;3.70;98.00;;;;;;4992568;28;20453;-62
2021/12/12 03:27:00;;;;;;;1.33;1.27;;;3.70;98.00;;;;;;4992711;28;20543;-62
2021/12/12 03:29:33;;;;;;;1.30;1.20;;;3.70;98.00;;;;;;5023063;28;20456;-62
2021/12/12 03:32:11;;;;;;;1.80;1.20;;;3.70;98.00;;;;;;4992617;28;20461;-62
2021/12/12 03:34:46;;;;;;;1.10;1.10;;;3.70;98.00;;;;;;4992627;28;20470;-62
2021/12/12 03:37:22;;;;;;;1.20;1.10;;;3.80;98.00;;;;;;4992310;28;20489;-63
2021/12/12 03:40:05;;;;;;;1.10;1.00;;;3.80;98.00;;;;;;4991176;28;20514;-63
2021/12/12 10:49:27;;;;;;;2.27;1.97;;;6.80;98.00;;;;;;5126359;27;20546;-69
2021/12/12 10:52:02;;;;;;;1.20;1.00;;;6.70;98.00;;;;;;5126962;27;20462;-74
2021/12/12 10:54:37;;;;;;;1.20;1.00;;;6.70;98.00;;;;;;5127490;28;20488;-71
2021/12/12 10:57:09;;;;;;;1.20;1.00;;;6.70;98.00;;;;;;5127836;28;20460;-68
2021/12/12 10:59:42;;;;;;;1.20;1.00;;;6.80;98.00;;;;;;5127482;27;20545;-68
2021/12/12 11:02:13;;;;;;;1.20;0.90;;;6.80;98.00;;;;;;5117607;28;20498;-69
2021/12/12 11:04:45;;;;;;;1.20;1.00;;;6.70;98.00;;;;;;5125327;27;20543;-68
2021/12/12 11:07:18;;;;;;;1.20;0.93;;;6.80;98.00;;;;;;5120014;28;21004;-67
2021/12/12 11:09:53;;;;;;;1.20;1.00;;;6.80;98.00;;;;;;5127076;28;20466;-70
2021/12/12 11:12:27;;;;;;;1.20;1.10;;;6.80;98.00;;;;;;5127098;28;20453;-70
2021/12/12 11:15:01;;;;;;;1.20;0.90;;;6.80;98.00;;;;;;5126724;28;20449;-70
2021/12/12 11:17:32;;;;;;;1.20;1.00;;;6.80;98.00;;;;;;5123185;28;20448;-69
2021/12/12 11:20:05;;;;;;;1.20;1.00;;;6.80;98.00;;;;;;5126765;28;20459;-67
2021/12/12 11:22:39;;;;;;;1.20;1.00;;;6.70;98.00;;;;;;5126637;28;20539;-67
2021/12/12 11:25:11;;;;;;;1.47;1.07;;;6.60;98.00;;;;;;5126761;27;20884;-67
2021/12/12 11:27:43;;;;;;;1.83;1.40;;;6.60;98.00;;;;;;5126266;27;20484;-67
2021/12/12 11:30:17;;;;;;;1.20;1.10;;;6.50;98.00;;;;;;5126204;28;20455;-68
2021/12/12 11:32:45;;;;;;;1.50;1.30;;;6.60;98.00;;;;;;5126812;28;20450;-68
2021/12/12 11:35:18;;;;;;;1.43;1.20;;;6.60;98.00;;;;;;5126827;28;20505;-68
2021/12/12 11:37:52;;;;;;;1.30;1.03;;;6.70;98.00;;;;;;5126821;28;20899;-67
2021/12/12 11:40:27;;;;;;;1.20;1.00;;;6.80;98.00;;;;;;5126229;28;20483;-67
2021/12/12 11:43:00;;;;;;;1.20;0.90;;;6.80;98.00;;;;;;5118401;28;20493;-68
2021/12/12 11:45:30;;;;;;;1.20;0.90;;;6.70;98.00;;;;;;5126354;28;20449;-67
2021/12/12 11:48:08;;;;;;;1.20;1.00;;;6.70;98.00;;;;;;5126053;27;20556;-67
2021/12/12 11:50:46;;;;;;;1.20;1.00;;;6.70;98.00;;;;;;5122650;28;20462;-68
2021/12/12 11:53:17;;;;;;;1.20;1.03;;;6.80;98.00;;;;;;5126219;28;20487;-68
2021/12/12 11:55:50;;;;;;;1.20;1.00;;;6.80;98.00;;;;;;5126312;27;20954;-67
2021/12/12 11:58:25;;;;;;;1.20;0.90;;;6.80;98.00;;;;;;5126062;28;20548;-67
2021/12/12 12:01:06;;;;;;;1.20;1.00;;;6.90;98.00;;;;;;5112056;28;20590;-67
2021/12/12 12:03:59;;;;;;;1.20;1.00;;;6.90;98.00;;;;;;5112073;28;20499;-67
2021/12/12 12:06:35;;;;;;;1.20;1.10;;;7.00;98.00;;;;;;5104813;28;20508;-66
2021/12/12 12:09:18;;;;;;;1.20;1.00;;;6.90;98.00;;;;;;5112199;28;20529;-69
2021/12/12 12:12:03;;;;;;;1.20;1.00;;;6.90;98.00;;;;;;5112585;28;20957;-67
2021/12/12 12:14:35;;;;;;;1.20;1.13;;;6.90;98.00;;;;;;5110889;28;20599;-68
2021/12/12 12:17:09;;;;;;;1.30;1.10;;;6.90;98.00;;;;;;5112564;28;20514;-68
2021/12/12 12:19:50;;;;;;;1.20;1.03;;;7.00;98.00;;;;;;5112296;28;20459;-68
2021/12/12 12:22:37;;;;;;;1.20;0.90;;;7.00;98.00;;;;;;5112331;28;20544;-68
2021/12/12 12:25:17;;;;;;;1.20;1.10;;;7.10;98.00;;;;;;5105346;28;20479;-68
2021/12/12 12:27:53;;;;;;;1.20;1.00;;;8.10;98.00;;;;;;5111678;28;20501;-68
2021/12/12 12:30:49;;;;;;;1.20;1.00;;;9.20;98.00;;;;;;5111672;28;20534;-68
2021/12/12 12:34:01;;;;;;;1.20;1.20;;;9.30;98.00;;;;;;5112093;28;20541;-69
2021/12/12 12:37:08;;;;;;;1.33;1.10;;;9.20;98.00;;;;;;5107419;28;20454;-67
2021/12/12 12:40:08;;;;;;;1.57;1.20;;;8.80;98.00;;;;;;5112040;28;20466;-68
2021/12/12 12:43:20;;;;;;;1.20;1.07;;;8.40;98.00;;;;;;5106879;28;20454;-68
2021/12/12 12:46:21;;;;;;;1.20;1.10;;;8.20;98.00;;;;;;5016322;28;21045;-68
2021/12/12 12:49:45;;;;;;;1.20;1.00;;;8.10;98.00;;;;;;5107100;28;21259;-67
2021/12/12 12:52:39;;;;;;;1.20;1.00;;;7.90;98.00;;;;;;5105773;28;20482;-71
2021/12/12 12:55:28;;;;;;;1.20;1.10;;;7.90;98.00;;;;;;5111511;28;20482;-70
2021/12/12 12:57:57;;;;;;;1.20;1.00;;;7.90;98.00;;;;;;5109419;28;20462;-71
2021/12/12 13:00:28;;;;;;;1.20;1.00;;;7.80;98.00;;;;;;5110816;28;20495;-71
2021/12/12 13:03:25;;;;;;;1.20;1.00;;;7.80;98.00;;;;;;5111422;28;20460;-72
2021/12/12 13:06:05;;;;;;;1.20;1.07;;;7.90;98.00;;;;;;5105145;28;20460;-72
2021/12/12 13:09:16;;;;;;;1.20;1.07;;;7.90;98.00;;;;;;5111058;28;20493;-72
2021/12/12 13:12:08;;;;;;;1.27;1.07;;;7.80;98.00;;;;;;5110350;28;20459;-72
2021/12/12 13:14:48;;;;;;;1.60;1.30;;;7.70;98.00;;;;;;5101269;28;20483;-72
2021/12/12 13:17:25;;;;;;;1.20;1.10;;;7.60;98.00;;;;;;5110465;28;20519;-72
2021/12/12 13:20:21;;;;;;;1.20;0.97;;;7.60;98.00;;;;;;5111006;28;20522;-72
2021/12/12 13:22:59;;;;;;;1.20;1.10;;;7.70;98.00;;;;;;5110713;28;20447;-72
2021/12/12 13:25:35;;;;;;;1.20;1.00;;;7.50;98.00;;;;;;5102271;28;20524;-72
2021/12/12 13:28:16;;;;;;;1.20;1.00;;;7.60;98.00;;;;;;5110725;28;20512;-72
2021/12/12 13:30:48;;;;;;;1.20;1.00;;;7.50;98.00;;;;;;5110641;28;20510;-72
2021/12/12 13:33:21;;;;;;;1.30;1.10;;;7.50;98.00;;;;;;5110721;28;20488;-72
2021/12/12 13:36:02;;;;;;;1.20;1.00;;;7.60;98.00;;;;;;5110829;28;20820;-72
2021/12/12 13:38:42;;;;;;;1.40;1.13;;;7.50;98.00;;;;;;5110221;28;20472;-72
2021/12/12 13:41:16;;;;;;;1.20;1.13;;;7.50;98.00;;;;;;5109234;28;20461;-72
2021/12/12 13:43:52;;;;;;;1.40;1.30;;;7.40;98.00;;;;;;5109959;28;20448;-76
2021/12/12 13:46:27;;;;;;;1.20;1.00;;;7.30;98.00;;;;;;5110422;28;20462;-72
2021/12/12 13:49:03;;;;;;;1.20;1.00;;;7.30;98.00;;;;;;5102161;28;20522;-73
2021/12/12 13:51:40;;;;;;;1.20;1.03;;;7.40;98.00;;;;;;5107922;28;20488;-71
2021/12/12 13:54:23;;;;;;;1.20;1.00;;;7.40;98.00;;;;;;5110273;28;20457;-72
2021/12/12 13:57:04;;;;;;;1.20;1.10;;;7.50;98.00;;;;;;5110304;28;20463;-71
2021/12/12 13:59:46;;;;;;;1.20;0.90;;;7.50;98.00;;;;;;5109924;28;20461;-72
2021/12/12 14:02:16;;;;;;;1.20;0.90;;;7.50;98.00;;;;;;5110246;28;20453;-71
2021/12/12 14:04:51;;;;;;;1.20;0.90;;;7.40;98.00;;;;;;5109229;28;20480;-71
2021/12/12 14:07:22;;;;;;;1.20;1.00;;;7.40;98.00;;;;;;5110583;28;20457;-72
2021/12/12 14:09:53;;;;;;;1.20;1.00;;;7.40;98.00;;;;;;5110590;28;20526;-72
2021/12/12 14:12:22;;;;;;;1.20;1.00;;;7.80;98.00;;;;;;5101833;28;20541;-71
2021/12/12 14:14:56;;;;;;;1.20;0.97;;;8.30;98.00;;;;;;5109838;28;20533;-72
2021/12/12 14:17:26;;;;;;;1.20;1.00;;;8.70;98.00;;;;;;5109766;28;20546;-72
2021/12/12 14:19:59;;;;;;;1.20;1.10;;;9.20;98.00;;;;;;5109818;28;21514;-71
2021/12/12 14:22:28;;;;;;;1.30;1.20;;;9.60;98.00;;;;;;5091354;28;20560;-72
2021/12/12 14:25:03;;;;;;;1.20;1.00;;;10.10;98.00;;;;;;5109357;28;21098;-72
2021/12/12 14:27:33;;;;;;;1.70;1.10;;;10.50;98.00;;;;;;5109799;28;20922;-72
2021/12/12 14:30:05;;;;;;;1.60;1.10;;;10.80;98.00;;;;;;5109632;28;20526;-72
2021/12/12 14:32:37;;;;;;;1.30;1.10;;;11.00;98.00;;;;;;5108430;28;20515;-71
2021/12/12 14:35:08;;;;;;;1.40;1.40;;;11.10;98.00;;;;;;5109481;28;20580;-72
2021/12/12 14:37:38;;;;;;;1.93;1.83;;;11.10;98.00;;;;;;5109483;28;20458;-72
2021/12/12 14:40:12;;;;;;;1.37;1.30;;;11.10;98.00;;;;;;5108885;28;20464;-75
2021/12/12 14:42:47;;;;;;;2.13;1.30;;;10.80;97.10;;;;;;5109040;28;20497;-73
2021/12/12 14:45:19;;;;;;;2.93;1.33;;;10.30;96.80;;;;;;5109282;28;20565;-73
2021/12/12 14:47:49;;;;;;;1.20;1.10;;;9.90;98.00;;;;;;5109705;28;20565;-73
2021/12/12 14:50:20;;;;;;;1.20;1.00;;;9.40;98.00;;;;;;5106199;28;20497;-73
2021/12/12 14:52:56;;;;;;;1.57;1.10;;;8.90;98.00;;;;;;5109564;28;20463;-73
2021/12/12 14:55:28;;;;;;;1.37;1.30;;;8.50;98.00;;;;;;5108711;28;20518;-73
2021/12/12 14:58:08;;;;;;;1.20;1.20;;;8.20;98.00;;;;;;5109697;28;20554;-73
2021/12/12 15:00:40;;;;;;;1.20;1.00;;;8.00;98.00;;;;;;5101535;28;20490;-73
2021/12/12 15:03:12;;;;;;;1.20;1.00;;;7.80;98.00;;;;;;5108166;28;20513;-73
2021/12/12 15:05:47;;;;;;;1.20;1.00;;;7.80;98.00;;;;;;5109098;28;20966;-73
2021/12/12 15:08:19;;;;;;;1.20;1.10;;;7.70;98.00;;;;;;5109388;28;20583;-73
2021/12/12 15:10:52;;;;;;;1.23;1.00;;;7.70;98.00;;;;;;5109385;28;20483;-73
2021/12/12 15:13:20;;;;;;;1.50;1.37;;;7.60;98.00;;;;;;5109468;28;20451;-73
2021/12/12 15:15:52;;;;;;;1.20;1.00;;;7.70;98.00;;;;;;5109245;28;20450;-72
2021/12/12 15:18:19;;;;;;;2.00;1.30;;;7.80;98.00;;;;;;5107714;28;20485;-73
2021/12/12 15:21:00;;;;;;;2.47;1.40;;;7.80;98.00;;;;;;5109032;28;20490;-72
2021/12/12 15:23:33;;;;;;;1.30;1.10;;;7.80;98.00;;;;;;5107435;28;20465;-73
2021/12/12 15:26:11;;;;;;;1.37;1.33;;;7.80;98.00;;;;;;5108764;28;20769;-72
2021/12/12 15:28:41;;;;;;;1.50;1.47;;;7.80;98.00;;;;;;5109380;28;21007;-72
2021/12/12 15:31:11;;;;;;;1.30;1.00;;;7.80;98.00;;;;;;5108890;28;20554;-73
2021/12/12 15:33:41;;;;;;;2.13;1.20;;;7.80;98.00;;;;;;5109020;28;20535;-72
2021/12/12 15:36:12;;;;;;;1.20;1.00;;;7.60;98.00;;;;;;5113246;28;20486;-72
2021/12/12 15:38:44;;;;;;;1.70;1.60;;;7.40;98.00;;;;;;5112845;28;20873;-72
2021/12/12 15:41:17;;;;;;;1.20;1.00;;;7.20;98.00;;;;;;5113122;28;20461;-72
2021/12/12 15:43:49;;;;;;;1.50;1.40;;;7.20;98.00;;;;;;5112414;28;20449;-72
2021/12/12 15:46:19;;;;;;;1.30;1.10;;;7.20;98.00;;;;;;5112662;28;20557;-73
2021/12/12 15:48:54;;;;;;;1.20;1.10;;;7.10;98.00;;;;;;5112853;28;20507;-73
2021/12/12 15:51:26;;;;;;;2.00;1.63;;;7.00;98.00;;;;;;5110621;27;20458;-72
2021/12/12 15:53:56;;;;;;;1.40;1.30;;;6.90;98.00;;;;;;5112459;28;20945;-73
2021/12/12 15:56:28;;;;;;;1.20;1.00;;;6.80;98.00;;;;;;5112630;28;20565;-73
2021/12/12 15:59:00;;;;;;;3.10;1.83;;;6.80;98.00;;;;;;5112555;28;20462;-72
2021/12/12 16:01:36;;;;;;;1.20;1.00;;;6.80;98.00;;;;;;5112598;28;20490;-72
2021/12/12 16:04:05;;;;;;;1.20;1.00;;;6.70;98.00;;;;;;5112428;27;20802;-72
2021/12/12 16:06:36;;;;;;;1.20;1.00;;;6.80;98.00;;;;;;5114985;28;20479;-72
2021/12/12 16:09:08;;;;;;;1.60;1.30;;;6.90;98.00;;;;;;5114688;28;20521;-72
2021/12/12 16:11:37;;;;;;;1.20;1.00;;;6.80;98.00;;;;;;5115122;28;20520;-72
2021/12/12 16:14:08;;;;;;;1.30;1.10;;;6.80;98.00;;;;;;5114783;28;20489;-72
2021/12/12 16:16:43;;;;;;;1.20;0.97;;;6.80;98.00;;;;;;5115032;28;20858;-72
2021/12/12 16:19:15;;;;;;;1.40;1.20;;;6.80;98.00;;;;;;5114585;28;20450;-72
2021/12/12 16:21:50;;;;;;;1.20;1.00;;;6.90;98.00;;;;;;5114889;28;20498;-72
2021/12/12 16:24:28;;;;;;;1.20;1.00;;;6.90;98.00;;;;;;5114764;28;20519;-72
2021/12/12 16:26:58;;;;;;;1.57;1.30;;;7.00;98.00;;;;;;5114899;28;20493;-72
2021/12/12 16:29:25;;;;;;;1.30;1.10;;;6.90;98.00;;;;;;5114810;28;20573;-72
2021/12/12 16:31:59;;;;;;;1.20;1.00;;;6.90;98.00;;;;;;5115037;28;20455;-72
2021/12/12 16:34:29;;;;;;;1.80;1.43;;;7.00;98.00;;;;;;5114911;28;20830;-72
2021/12/12 16:37:05;;;;;;;2.17;1.20;;;7.00;98.00;;;;;;5114807;28;21001;-72
2021/12/12 16:39:37;;;;;;;2.43;1.60;;;6.80;98.00;;;;;;5114445;28;20451;-72
2021/12/12 16:42:14;;;;;;;1.50;1.10;;;6.90;98.00;;;;;;5114212;28;20483;-72
2021/12/12 16:44:46;;;;;;;2.07;1.10;;;6.90;98.00;;;;;;5114284;28;20534;-72
2021/12/12 16:47:25;;;;;;;1.83;1.30;;;7.00;98.00;;;;;;5114101;28;20490;-72
2021/12/12 16:49:53;;;;;;;1.20;1.20;;;6.90;98.00;;;;;;5113920;28;20487;-72
2021/12/12 16:52:25;;;;;;;1.20;0.93;;;6.80;98.00;;;;;;5112650;28;20487;-72
2021/12/12 16:54:56;;;;;;;1.20;1.00;;;6.90;98.00;;;;;;5114125;28;20617;-72
2021/12/12 16:57:28;;;;;;;1.40;1.40;;;6.80;98.00;;;;;;5113926;28;20863;-72
2021/12/12 17:00:05;;;;;;;2.00;1.90;;;6.90;98.00;;;;;;5113807;28;20888;-72
2021/12/12 17:02:37;;;;;;;1.83;1.10;;;7.00;98.00;;;;;;5114000;28;20451;-72
2021/12/12 17:05:06;;;;;;;1.50;1.20;;;7.10;98.00;;;;;;5113723;28;20451;-72
2021/12/12 17:07:46;;;;;;;1.50;1.10;;;7.20;98.00;;;;;;5112531;28;20467;-72
2021/12/12 17:10:15;;;;;;;1.20;1.10;;;7.20;98.00;;;;;;5113578;28;20574;-72
2021/12/12 17:12:49;;;;;;;3.83;1.10;;;7.20;98.00;;;;;;5113737;28;20526;-72
2021/12/12 17:15:19;;;;;;;2.23;1.50;;;7.10;98.00;;;;;;5113592;28;20820;-72
2021/12/12 17:17:50;;;;;;;1.40;1.27;;;7.10;98.00;;;;;;5113701;28;20458;-72
2021/12/12 17:20:21;;;;;;;1.20;1.10;;;7.00;98.00;;;;;;5113303;28;20492;-72
2021/12/12 17:22:50;;;;;;;1.30;1.30;;;7.00;98.00;;;;;;5113379;28;20488;-72
2021/12/12 17:25:21;;;;;;;1.83;1.37;;;7.00;98.00;;;;;;5113340;28;20493;-72
2021/12/12 17:27:51;;;;;;;4.00;1.83;;;7.10;98.00;;;;;;5113515;28;20865;-72
2021/12/12 17:30:21;;;;;;;1.40;1.33;;;7.10;98.00;;;;;;5113263;28;20531;-73
2021/12/12 17:32:54;;;;;;;1.60;1.20;;;7.00;98.00;;;;;;5113580;28;20465;-72
2021/12/12 17:35:32;;;;;;;1.30;1.10;;;6.90;98.00;;;;;;5113289;28;20479;-72
2021/12/12 17:38:03;;;;;;;1.33;1.03;;;6.80;98.00;;;;;;5113416;28;20460;-72
2021/12/12 17:40:34;;;;;;;1.20;1.00;;;6.80;98.00;;;;;;5113122;28;20486;-72
2021/12/12 17:43:45;;;;;;;1.20;1.20;;;6.90;98.00;;;;;;5113483;28;20561;-72
2021/12/12 17:46:46;;;;;;;1.50;1.13;;;7.00;98.00;;;;;;5097606;28;20523;-72
2021/12/12 17:49:56;;;;;;;1.30;1.10;;;7.00;98.00;;;;;;5113084;28;20889;-72
2021/12/12 17:52:52;;;;;;;1.20;1.00;;;7.00;98.00;;;;;;5113028;28;20453;-72
2021/12/12 17:55:27;;;;;;;1.20;1.00;;;7.00;98.00;;;;;;5111543;28;20482;-74
2021/12/12 17:58:04;;;;;;;1.20;1.20;;;7.00;98.00;;;;;;5112506;28;20485;-72
2021/12/12 18:00:39;;;;;;;1.27;1.07;;;7.00;98.00;;;;;;5112631;28;20536;-72
2021/12/12 18:03:13;;;;;;;1.57;1.37;;;7.00;98.00;;;;;;5112891;28;20457;-72
2021/12/12 18:05:44;;;;;;;1.20;1.00;;;7.00;98.00;;;;;;5112680;28;21176;-72
2021/12/12 18:08:56;;;;;;;1.20;1.00;;;7.10;98.00;;;;;;5112563;28;20867;-72
2021/12/12 18:11:28;;;;;;;1.20;1.13;;;7.10;98.00;;;;;;5112594;28;20456;-72
2021/12/12 18:13:58;;;;;;;1.20;1.00;;;7.10;98.00;;;;;;5112557;28;20498;-72
2021/12/12 18:17:08;;;;;;;1.20;1.00;;;7.10;98.00;;;;;;5112296;28;20541;-72
2021/12/12 18:20:27;;;;;;;1.40;1.10;;;7.10;98.00;;;;;;5112334;28;20543;-72
2021/12/12 18:22:58;;;;;;;1.30;1.10;;;7.10;98.00;;;;;;5109059;28;20494;-72
2021/12/12 18:25:30;;;;;;;1.20;1.00;;;7.10;98.00;;;;;;5112265;28;20544;-72
2021/12/12 18:28:01;;;;;;;1.20;1.00;;;7.20;98.00;;;;;;5112375;28;21016;-72
2021/12/12 18:30:33;;;;;;;1.30;1.20;;;7.10;98.00;;;;;;5112305;28;20514;-72
2021/12/12 18:33:11;;;;;;;1.30;1.10;;;7.00;98.00;;;;;;5112433;28;20952;-72
2021/12/12 18:35:43;;;;;;;2.23;1.17;;;7.10;98.00;;;;;;5112205;28;20492;-72
2021/12/12 18:38:14;;;;;;;1.20;1.00;;;7.10;98.00;;;;;;5112412;28;20480;-72
2021/12/12 18:40:53;;;;;;;1.20;1.20;;;7.10;98.00;;;;;;5112331;28;20448;-72
2021/12/12 18:43:23;;;;;;;1.20;1.10;;;7.20;98.00;;;;;;5112244;28;20450;-72
2021/12/12 18:45:51;;;;;;;1.20;0.90;;;7.30;98.00;;;;;;5112126;28;20547;-72
2021/12/12 18:48:22;;;;;;;1.40;1.30;;;7.30;98.00;;;;;;5112099;28;20493;-72
2021/12/12 18:50:52;;;;;;;1.20;1.20;;;7.20;98.00;;;;;;5112001;28;20520;-72
2021/12/12 18:53:28;;;;;;;1.20;1.10;;;7.10;98.00;;;;;;5112058;28;20458;-72
2021/12/12 18:55:57;;;;;;;1.40;1.40;;;7.10;98.00;;;;;;5112179;28;20456;-72
2021/12/12 18:58:29;;;;;;;1.40;1.30;;;7.10;98.00;;;;;;5111877;28;20491;-72
2021/12/12 19:01:08;;;;;;;1.20;1.10;;;7.20;98.00;;;;;;5112102;28;20488;-72
2021/12/12 19:03:39;;;;;;;1.63;1.53;;;7.00;98.00;;;;;;5112292;28;20516;-72
2021/12/12 19:06:07;;;;;;;1.43;1.30;;;7.00;98.00;;;;;;5111727;28;20488;-72
2021/12/12 19:08:36;;;;;;;1.30;1.10;;;7.00;98.00;;;;;;5112272;28;20500;-72
2021/12/12 19:11:08;;;;;;;1.20;1.10;;;7.00;98.00;;;;;;5115974;28;20521;-72
2021/12/12 19:13:39;;;;;;;1.73;1.17;;;7.20;98.00;;;;;;5116446;28;20500;-72
2021/12/12 19:16:09;;;;;;;1.30;1.00;;;7.10;98.00;;;;;;5116020;28;20546;-72
2021/12/12 19:18:39;;;;;;;1.20;1.00;;;7.10;98.00;;;;;;5115975;28;20841;-72
2021/12/12 19:21:10;;;;;;;1.20;1.00;;;7.10;98.00;;;;;;5115811;28;20478;-72
2021/12/12 19:23:39;;;;;;;1.20;1.00;;;7.10;98.00;;;;;;5115849;28;20457;-72
2021/12/12 19:26:11;;;;;;;1.20;1.20;;;7.10;98.00;;;;;;5115804;28;20458;-72
2021/12/12 19:28:43;;;;;;;1.20;1.20;;;7.10;98.00;;;;;;5115814;28;20517;-72
2021/12/12 19:31:16;;;;;;;1.20;1.00;;;7.20;98.00;;;;;;5115443;28;20520;-72
2021/12/12 19:33:45;;;;;;;1.40;1.10;;;7.30;98.00;;;;;;5115741;28;20451;-72
2021/12/12 19:36:12;;;;;;;1.30;1.10;;;7.30;98.00;;;;;;5115483;28;20535;-72
2021/12/12 19:38:42;;;;;;;1.70;1.30;;;7.40;98.00;;;;;;5115575;28;20510;-72
2021/12/12 19:41:13;;;;;;;1.20;1.07;;;7.40;98.00;;;;;;5114856;27;20860;-72
2021/12/12 19:43:46;;;;;;;1.40;1.40;;;7.20;98.00;;;;;;5115667;28;20488;-72
2021/12/12 19:46:16;;;;;;;1.20;1.00;;;7.20;98.00;;;;;;5115225;28;20453;-72
2021/12/12 19:48:46;;;;;;;1.20;1.10;;;7.20;98.00;;;;;;5115413;28;20493;-72
2021/12/12 19:51:16;;;;;;;1.20;1.10;;;7.30;98.00;;;;;;5113921;28;20515;-72
2021/12/12 19:53:47;;;;;;;1.20;1.20;;;7.40;98.00;;;;;;5115173;28;20536;-72
2021/12/12 19:56:15;;;;;;;1.20;1.20;;;7.40;98.00;;;;;;5114355;28;20492;-72
2021/12/12 19:58:48;;;;;;;1.30;1.27;;;7.40;98.00;;;;;;5114382;28;20879;-72
2021/12/12 20:01:19;;;;;;;1.30;1.20;;;7.40;98.00;;;;;;5114322;28;20490;-69
2021/12/12 20:03:49;;;;;;;1.20;1.00;;;7.40;98.00;;;;;;5115136;28;20488;-70
2021/12/12 20:06:19;;;;;;;1.60;1.50;;;7.50;98.00;;;;;;5115033;28;20965;-68
2021/12/12 20:08:50;;;;;;;1.20;1.00;;;7.40;98.00;;;;;;5114983;28;21011;-68
2021/12/12 20:11:21;;;;;;;1.40;1.23;;;7.40;98.00;;;;;;5114884;28;20509;-69
2021/12/12 20:13:53;;;;;;;1.20;1.10;;;7.50;98.00;;;;;;5115013;28;20478;-69
2021/12/12 20:16:29;;;;;;;1.93;1.23;;;7.50;98.00;;;;;;5114673;28;20465;-68
2021/12/12 20:19:04;;;;;;;1.40;1.20;;;7.40;98.00;;;;;;5114935;28;20462;-70
2021/12/12 20:21:35;;;;;;;1.23;1.03;;;7.40;98.00;;;;;;5114411;28;20476;-69
2021/12/12 20:24:16;;;;;;;1.20;1.00;;;7.30;98.00;;;;;;5113539;28;20461;-69
2021/12/12 20:26:45;;;;;;;2.90;1.80;;;7.30;98.00;;;;;;5114861;28;20944;-68
2021/12/12 20:29:16;;;;;;;1.60;1.50;;;7.40;98.00;;;;;;5114942;27;20895;-68
2021/12/12 20:31:44;;;;;;;1.20;1.00;;;7.30;98.00;;;;;;5114575;28;20572;-69
2021/12/12 20:34:21;;;;;;;1.20;0.97;;;7.40;98.00;;;;;;5114534;28;20494;-68
2021/12/12 20:36:54;;;;;;;1.20;1.00;;;7.50;98.00;;;;;;5114769;28;20461;-69
2021/12/12 20:39:25;;;;;;;1.20;1.00;;;7.50;98.00;;;;;;5114186;28;20947;-68
2021/12/12 20:41:56;;;;;;;1.30;1.30;;;7.50;98.00;;;;;;5114662;28;20453;-68
2021/12/12 20:44:28;;;;;;;1.20;1.10;;;7.50;98.00;;;;;;5114595;28;20455;-69
2021/12/12 20:46:59;;;;;;;1.20;1.00;;;7.50;98.00;;;;;;5114582;28;20454;-69
2021/12/12 20:49:31;;;;;;;1.90;1.30;;;7.50;98.00;;;;;;5114267;28;20484;-68
2021/12/12 20:52:04;;;;;;;1.60;1.10;;;7.50;98.00;;;;;;5114098;28;20879;-68
2021/12/12 20:54:35;;;;;;;1.20;1.10;;;7.40;98.00;;;;;;5114207;28;20481;-68
2021/12/12 20:57:07;;;;;;;1.93;1.30;;;7.40;98.00;;;;;;5113976;28;20490;-68